createdAt,value
2022-11-10T00:00:44.360Z,93.31
2022-11-10T00:01:45.537Z,93.31
2022-11-10T00:02:44.905Z,93.31
2022-11-10T00:03:45.255Z,93.77
2022-11-10T00:04:45.563Z,94.12
2022-11-10T00:05:45.867Z,93.92
2022-11-10T00:06:47.144Z,94.18
2022-11-10T00:07:46.478Z,93.67
2022-11-10T00:08:46.768Z,93.88
2022-11-10T00:09:46.975Z,94.29
2022-11-10T00:10:47.304Z,94.49
2022-11-10T00:11:48.578Z,94.08
2022-11-10T00:12:47.953Z,94.08
2022-11-10T00:13:48.271Z,94.18
2022-11-10T00:14:48.596Z,94.18
2022-11-10T00:15:48.895Z,94.14
2022-11-10T00:16:50.203Z,93.93
2022-11-10T00:17:49.436Z,94.14
2022-11-10T00:18:49.747Z,94.04
2022-11-10T00:19:50.056Z,93.52
2022-11-10T00:20:50.372Z,93.63
2022-11-10T00:21:52.072Z,93.43
2022-11-10T00:22:50.954Z,94.24
2022-11-10T00:23:51.265Z,94.34
2022-11-10T00:24:51.580Z,94.55
2022-11-10T00:25:51.899Z,94.45
2022-11-10T00:26:53.730Z,94.04
2022-11-10T00:27:52.475Z,94.24
2022-11-10T00:28:52.798Z,94.55
2022-11-10T00:29:53.144Z,94.14
2022-11-10T00:30:53.410Z,94.30
2022-11-10T00:31:55.117Z,94.20
2022-11-10T00:32:54.105Z,93.99
2022-11-10T00:33:54.246Z,93.89
2022-11-10T00:34:54.555Z,94.20
2022-11-10T00:35:54.856Z,94.40
2022-11-10T00:36:55.242Z,94.30
2022-11-10T00:37:55.416Z,93.89
2022-11-10T00:38:55.727Z,93.79
2022-11-10T00:39:56.027Z,93.79
2022-11-10T00:40:56.337Z,93.48
2022-11-10T00:41:57.030Z,93.18
2022-11-10T00:42:56.916Z,93.18
2022-11-10T00:43:57.231Z,93.07
2022-11-10T00:44:57.538Z,93.22
2022-11-10T00:45:57.864Z,93.12
2022-11-10T00:46:58.201Z,93.63
2022-11-10T00:47:58.399Z,94.08
2022-11-10T00:48:58.717Z,93.88
2022-11-10T00:49:59.023Z,94.49
2022-11-10T00:51:00.291Z,94.49
2022-11-10T00:52:00.496Z,94.59
2022-11-10T00:52:59.996Z,94.49
2022-11-10T00:54:00.298Z,94.70
2022-11-10T00:55:00.613Z,94.59
2022-11-10T00:56:01.856Z,95.31
2022-11-10T00:57:01.260Z,95.31
2022-11-10T00:58:01.583Z,95.31
2022-11-10T00:59:01.890Z,95.10
2022-11-10T01:00:02.193Z,95.00
2022-11-10T01:01:03.559Z,95.10
2022-11-10T01:02:02.792Z,95.61
2022-11-10T01:03:03.121Z,95.41
2022-11-10T01:04:03.414Z,94.84
2022-11-10T01:05:03.739Z,94.64
2022-11-10T01:06:05.014Z,93.51
2022-11-10T01:07:04.432Z,93.10
2022-11-10T01:08:04.744Z,92.39
2022-11-10T01:09:05.994Z,91.47
2022-11-10T01:10:05.373Z,90.96
2022-11-10T01:11:06.655Z,90.66
2022-11-10T01:12:06.022Z,90.35
2022-11-10T01:13:07.137Z,90.14
2022-11-10T01:14:06.632Z,89.84
2022-11-10T01:15:06.949Z,89.63
2022-11-10T01:16:07.378Z,89.73
2022-11-10T01:17:07.532Z,89.90
2022-11-10T01:18:07.842Z,89.49
2022-11-10T01:19:08.157Z,89.28
2022-11-10T01:20:08.462Z,89.59
2022-11-10T01:21:09.746Z,89.08
2022-11-10T01:22:09.115Z,89.39
2022-11-10T01:23:09.857Z,89.63
2022-11-10T01:24:09.733Z,89.53
2022-11-10T01:25:09.994Z,89.69
2022-11-10T01:26:11.258Z,89.18
2022-11-10T01:27:10.634Z,89.08
2022-11-10T01:28:11.843Z,88.88
2022-11-10T01:29:11.247Z,88.78
2022-11-10T01:30:12.007Z,88.63
2022-11-10T01:31:12.837Z,88.32
2022-11-10T01:32:13.080Z,88.43
2022-11-10T01:33:12.452Z,88.53
2022-11-10T01:34:12.828Z,88.53
2022-11-10T01:35:13.011Z,88.32
2022-11-10T01:36:13.316Z,88.22
2022-11-10T01:37:13.705Z,88.43
2022-11-10T01:38:13.890Z,87.92
2022-11-10T01:39:14.231Z,87.82
2022-11-10T01:40:14.628Z,87.71
2022-11-10T01:41:14.891Z,87.92
2022-11-10T01:42:16.146Z,88.22
2022-11-10T01:43:15.646Z,87.96
2022-11-10T01:44:15.813Z,87.82
2022-11-10T01:45:17.103Z,87.71
2022-11-10T01:46:16.460Z,87.61
2022-11-10T01:47:17.781Z,87.76
2022-11-10T01:48:17.042Z,88.02
2022-11-10T01:49:17.412Z,87.92
2022-11-10T01:50:17.596Z,87.82
2022-11-10T01:51:17.914Z,87.30
2022-11-10T01:52:19.192Z,87.92
2022-11-10T01:53:18.733Z,87.92
2022-11-10T01:54:18.848Z,88.22
2022-11-10T01:55:19.159Z,88.43
2022-11-10T01:56:19.470Z,89.08
2022-11-10T01:57:20.754Z,89.39
2022-11-10T01:58:20.166Z,90.14
2022-11-10T01:59:20.314Z,91.11
2022-11-10T02:00:20.616Z,91.31
2022-11-10T02:01:21.922Z,91.52
2022-11-10T02:02:22.415Z,91.61
2022-11-10T02:03:22.623Z,92.19
2022-11-10T02:04:21.728Z,92.39
2022-11-10T02:05:22.057Z,92.80
2022-11-10T02:06:22.363Z,93.06
2022-11-10T02:07:22.688Z,92.76
2022-11-10T02:08:24.081Z,92.30
2022-11-10T02:09:23.363Z,92.10
2022-11-10T02:10:23.778Z,92.50
2022-11-10T02:11:24.929Z,92.71
2022-11-10T02:12:24.416Z,92.67
2022-11-10T02:13:25.452Z,92.67
2022-11-10T02:14:25.129Z,92.97
2022-11-10T02:15:25.156Z,93.18
2022-11-10T02:16:25.473Z,93.18
2022-11-10T02:17:25.790Z,93.18
2022-11-10T02:18:26.526Z,92.57
2022-11-10T02:19:27.844Z,93.32
2022-11-10T02:20:27.012Z,93.48
2022-11-10T02:21:27.001Z,92.97
2022-11-10T02:22:27.316Z,92.67
2022-11-10T02:23:28.740Z,92.81
2022-11-10T02:24:27.885Z,92.61
2022-11-10T02:25:28.220Z,92.30
2022-11-10T02:26:28.534Z,92.81
2022-11-10T02:27:28.875Z,92.76
2022-11-10T02:28:30.165Z,93.16
2022-11-10T02:29:29.533Z,93.37
2022-11-10T02:30:30.056Z,93.16
2022-11-10T02:31:30.094Z,93.16
2022-11-10T02:32:30.403Z,93.16
2022-11-10T02:33:31.730Z,93.57
2022-11-10T02:34:31.895Z,93.67
2022-11-10T02:35:31.294Z,93.37
2022-11-10T02:36:31.613Z,93.37
2022-11-10T02:37:31.926Z,93.06
2022-11-10T02:38:32.237Z,92.86
2022-11-10T02:39:32.569Z,92.76
2022-11-10T02:40:32.895Z,93.06
2022-11-10T02:41:33.221Z,93.37
2022-11-10T02:42:33.523Z,93.88
2022-11-10T02:43:33.836Z,93.67
2022-11-10T02:44:35.036Z,93.37
2022-11-10T02:45:34.878Z,93.67
2022-11-10T02:46:34.777Z,93.67
2022-11-10T02:47:35.096Z,93.57
2022-11-10T02:48:35.401Z,93.22
2022-11-10T02:49:36.695Z,93.57
2022-11-10T02:50:36.077Z,93.57
2022-11-10T02:51:36.394Z,93.57
2022-11-10T02:52:36.718Z,93.57
2022-11-10T02:53:37.044Z,93.67
2022-11-10T02:54:38.320Z,94.04
2022-11-10T02:55:37.727Z,94.24
2022-11-10T02:56:38.288Z,94.34
2022-11-10T02:57:38.317Z,94.14
2022-11-10T02:58:38.618Z,94.04
2022-11-10T02:59:39.904Z,93.84
2022-11-10T03:00:40.143Z,93.93
2022-11-10T03:01:39.559Z,93.63
2022-11-10T03:02:39.816Z,93.43
2022-11-10T03:03:40.139Z,93.22
2022-11-10T03:04:41.459Z,93.22
2022-11-10T03:05:40.722Z,92.71
2022-11-10T03:06:41.133Z,92.71
2022-11-10T03:07:41.294Z,92.71
2022-11-10T03:08:41.602Z,92.71
2022-11-10T03:09:41.954Z,92.50
2022-11-10T03:10:42.128Z,92.81
2022-11-10T03:11:42.461Z,92.71
2022-11-10T03:12:42.768Z,92.76
2022-11-10T03:14:00.266Z,92.61
2022-11-10T03:14:45.442Z,92.71
2022-11-10T03:15:44.021Z,92.36
2022-11-10T03:16:44.023Z,92.16
2022-11-10T03:17:44.328Z,92.16
2022-11-10T03:18:44.655Z,92.46
2022-11-10T03:19:45.936Z,92.46
2022-11-10T03:20:45.183Z,92.57
2022-11-10T03:21:46.262Z,92.26
2022-11-10T03:22:45.748Z,92.46
2022-11-10T03:23:46.061Z,92.57
2022-11-10T03:24:47.357Z,92.36
2022-11-10T03:25:46.640Z,92.46
2022-11-10T03:26:46.997Z,92.36
2022-11-10T03:27:47.181Z,92.81
2022-11-10T03:28:47.490Z,92.57
2022-11-10T03:29:47.822Z,92.61
2022-11-10T03:30:48.143Z,92.50
2022-11-10T03:31:48.463Z,92.41
2022-11-10T03:32:48.768Z,92.20
2022-11-10T03:33:49.093Z,92.30
2022-11-10T03:34:49.559Z,92.55
2022-11-10T03:35:50.761Z,92.86
2022-11-10T03:36:50.238Z,92.65
2022-11-10T03:37:50.277Z,92.96
2022-11-10T03:38:51.109Z,93.16
2022-11-10T03:39:50.845Z,92.96
2022-11-10T03:41:52.450Z,93.57
2022-11-10T03:42:51.685Z,93.57
2022-11-10T03:43:51.995Z,93.57
2022-11-10T03:44:52.311Z,93.88
2022-11-10T03:45:53.477Z,93.57
2022-11-10T03:46:53.941Z,94.08
2022-11-10T03:47:53.262Z,94.18
2022-11-10T03:48:53.905Z,94.08
2022-11-10T03:49:53.855Z,94.08
2022-11-10T03:50:55.134Z,94.08
2022-11-10T03:51:54.874Z,94.38
2022-11-10T03:52:54.736Z,94.90
2022-11-10T03:53:55.053Z,94.59
2022-11-10T03:54:58.091Z,95.10
2022-11-10T03:55:56.852Z,95.10
2022-11-10T03:56:55.935Z,94.79
2022-11-10T03:57:56.253Z,95.00
2022-11-10T03:58:56.588Z,94.70
2022-11-10T03:59:56.895Z,94.55
2022-11-10T04:00:58.188Z,94.34
2022-11-10T04:01:57.486Z,94.65
2022-11-10T04:02:57.766Z,94.85
2022-11-10T04:03:58.099Z,94.85
2022-11-10T04:04:58.406Z,94.75
2022-11-10T04:05:59.747Z,94.85
2022-11-10T04:06:59.032Z,94.95
2022-11-10T04:07:59.338Z,94.75
2022-11-10T04:08:59.660Z,94.85
2022-11-10T04:09:59.963Z,95.01
2022-11-10T04:11:01.195Z,94.60
2022-11-10T04:12:00.578Z,95.01
2022-11-10T04:13:00.910Z,94.91
2022-11-10T04:14:01.219Z,95.01
2022-11-10T04:15:01.539Z,95.01
2022-11-10T04:16:02.888Z,95.32
2022-11-10T04:17:02.135Z,95.21
2022-11-10T04:18:02.516Z,95.21
2022-11-10T04:19:02.708Z,95.21
2022-11-10T04:20:03.005Z,94.91
2022-11-10T04:21:04.310Z,95.21
2022-11-10T04:22:03.554Z,95.32
2022-11-10T04:23:03.886Z,94.60
2022-11-10T04:24:04.191Z,94.81
2022-11-10T04:25:04.500Z,94.71
2022-11-10T04:26:05.817Z,94.81
2022-11-10T04:27:05.091Z,94.91
2022-11-10T04:28:05.300Z,94.50
2022-11-10T04:29:05.608Z,94.91
2022-11-10T04:30:05.909Z,94.91
2022-11-10T04:31:07.195Z,94.71
2022-11-10T04:32:06.872Z,95.42
2022-11-10T04:33:06.876Z,95.21
2022-11-10T04:34:07.186Z,95.01
2022-11-10T04:35:07.515Z,95.62
2022-11-10T04:36:08.792Z,95.62
2022-11-10T04:37:08.165Z,95.73
2022-11-10T04:38:08.495Z,96.23
2022-11-10T04:39:08.803Z,96.44
2022-11-10T04:40:09.117Z,96.44
2022-11-10T04:41:10.486Z,96.23
2022-11-10T04:42:09.736Z,96.34
2022-11-10T04:43:10.062Z,96.34
2022-11-10T04:44:10.377Z,96.03
2022-11-10T04:45:10.689Z,96.44
2022-11-10T04:46:12.042Z,96.84
2022-11-10T04:47:12.110Z,97.00
2022-11-10T04:48:11.574Z,96.64
2022-11-10T04:49:11.920Z,97.16
2022-11-10T04:50:12.221Z,97.16
2022-11-10T04:51:13.942Z,97.11
2022-11-10T04:52:13.783Z,96.95
2022-11-10T04:53:13.072Z,96.91
2022-11-10T04:54:13.394Z,97.11
2022-11-10T04:55:13.701Z,96.80
2022-11-10T04:56:14.006Z,97.11
2022-11-10T04:57:14.324Z,97.00
2022-11-10T04:58:15.492Z,97.11
2022-11-10T04:59:14.876Z,96.80
2022-11-10T05:00:15.174Z,96.60
2022-11-10T05:01:15.515Z,96.30
2022-11-10T05:02:15.795Z,96.39
2022-11-10T05:03:17.061Z,96.19
2022-11-10T05:04:16.440Z,96.60
2022-11-10T05:05:16.768Z,96.80
2022-11-10T05:06:18.052Z,96.39
2022-11-10T05:07:17.424Z,96.80
2022-11-10T05:08:18.725Z,96.30
2022-11-10T05:09:18.008Z,96.50
2022-11-10T05:10:18.310Z,96.39
2022-11-10T05:11:18.632Z,96.39
2022-11-10T05:12:22.349Z,96.30
2022-11-10T05:13:20.482Z,95.98
2022-11-10T05:14:19.479Z,96.09
2022-11-10T05:15:19.793Z,95.89
2022-11-10T05:16:20.107Z,95.78
2022-11-10T05:17:20.428Z,95.98
2022-11-10T05:18:21.767Z,95.78
2022-11-10T05:19:21.015Z,96.14
2022-11-10T05:20:21.355Z,96.23
2022-11-10T05:21:22.621Z,96.34
2022-11-10T05:22:21.986Z,96.03
2022-11-10T05:23:23.633Z,96.03
2022-11-10T05:24:22.645Z,96.34
2022-11-10T05:25:22.954Z,95.83
2022-11-10T05:26:23.258Z,96.23
2022-11-10T05:27:23.573Z,96.14
2022-11-10T05:28:24.051Z,95.83
2022-11-10T05:29:24.216Z,95.93
2022-11-10T05:30:24.568Z,96.28
2022-11-10T05:31:24.867Z,96.28
2022-11-10T05:32:25.175Z,96.64
2022-11-10T05:33:26.570Z,96.23
2022-11-10T05:34:25.803Z,96.23
2022-11-10T05:35:26.102Z,96.14
2022-11-10T05:36:26.724Z,96.54
2022-11-10T05:37:26.714Z,96.54
2022-11-10T05:38:28.037Z,96.23
2022-11-10T05:39:28.200Z,95.93
2022-11-10T05:40:27.601Z,96.44
2022-11-10T05:41:27.911Z,96.44
2022-11-10T05:42:28.227Z,96.03
2022-11-10T05:43:28.528Z,95.93
2022-11-10T05:44:29.874Z,96.23
2022-11-10T05:45:29.592Z,96.14
2022-11-10T05:46:29.448Z,96.44
2022-11-10T05:47:29.757Z,96.54
2022-11-10T05:48:30.081Z,96.64
2022-11-10T05:49:31.334Z,96.75
2022-11-10T05:50:30.709Z,96.64
2022-11-10T05:51:31.020Z,96.19
2022-11-10T05:52:31.345Z,96.09
2022-11-10T05:53:31.686Z,96.14
2022-11-10T05:54:32.899Z,96.44
2022-11-10T05:55:32.284Z,95.89
2022-11-10T05:56:32.588Z,95.98
2022-11-10T05:57:32.906Z,96.03
2022-11-10T05:58:33.415Z,96.23
2022-11-10T05:59:35.145Z,96.34
2022-11-10T06:00:33.773Z,96.34
2022-11-10T06:01:35.088Z,96.44
2022-11-10T06:02:34.362Z,96.54
2022-11-10T06:03:34.731Z,96.95
2022-11-10T06:04:34.997Z,96.75
2022-11-10T06:05:35.334Z,96.54
2022-11-10T06:06:36.648Z,95.83
2022-11-10T06:07:35.878Z,95.83
2022-11-10T06:08:36.189Z,95.93
2022-11-10T06:09:36.501Z,96.34
2022-11-10T06:10:36.825Z,95.73
2022-11-10T06:11:38.594Z,96.28
2022-11-10T06:12:37.475Z,96.84
2022-11-10T06:13:37.804Z,96.54
2022-11-10T06:14:38.109Z,96.64
2022-11-10T06:15:38.433Z,96.23
2022-11-10T06:16:39.749Z,96.03
2022-11-10T06:17:39.024Z,95.93
2022-11-10T06:18:39.342Z,95.83
2022-11-10T06:19:39.666Z,96.03
2022-11-10T06:20:40.003Z,96.28
2022-11-10T06:21:41.313Z,96.59
2022-11-10T06:22:41.005Z,96.44
2022-11-10T06:23:40.875Z,96.48
2022-11-10T06:24:41.200Z,96.48
2022-11-10T06:25:41.553Z,96.59
2022-11-10T06:26:42.250Z,96.79
2022-11-10T06:27:42.006Z,96.79
2022-11-10T06:28:42.428Z,96.64
2022-11-10T06:29:42.624Z,96.64
2022-11-10T06:30:42.968Z,96.54
2022-11-10T06:31:44.195Z,96.44
2022-11-10T06:32:43.467Z,96.03
2022-11-10T06:33:43.816Z,96.14
2022-11-10T06:34:44.033Z,96.38
2022-11-10T06:35:44.382Z,96.69
2022-11-10T06:36:45.508Z,96.79
2022-11-10T06:37:45.032Z,96.69
2022-11-10T06:38:45.373Z,96.69
2022-11-10T06:39:45.715Z,96.59
2022-11-10T06:40:46.073Z,96.54
2022-11-10T06:41:46.473Z,96.23
2022-11-10T06:42:46.704Z,96.14
2022-11-10T06:43:46.927Z,96.28
2022-11-10T06:44:47.258Z,97.05
2022-11-10T06:45:47.605Z,96.54
2022-11-10T06:46:48.929Z,96.44
2022-11-10T06:47:48.217Z,96.34
2022-11-10T06:48:48.435Z,96.84
2022-11-10T06:49:48.778Z,96.23
2022-11-10T06:50:49.127Z,96.34
2022-11-10T06:51:50.740Z,96.75
2022-11-10T06:52:49.789Z,96.70
2022-11-10T06:53:50.147Z,95.89
2022-11-10T06:54:50.380Z,96.03
2022-11-10T06:55:50.710Z,96.64
2022-11-10T06:56:52.513Z,96.44
2022-11-10T06:57:51.284Z,96.44
2022-11-10T06:58:51.641Z,96.14
2022-11-10T06:59:51.862Z,96.34
2022-11-10T07:00:52.241Z,96.23
2022-11-10T07:01:53.501Z,96.23
2022-11-10T07:02:52.766Z,96.18
2022-11-10T07:04:13.519Z,96.44
2022-11-10T07:04:54.490Z,96.34
2022-11-10T07:05:53.660Z,96.03
2022-11-10T07:06:54.923Z,96.59
2022-11-10T07:07:54.211Z,96.69
2022-11-10T07:08:54.430Z,96.64
2022-11-10T07:09:54.690Z,96.44
2022-11-10T07:10:54.913Z,96.23
2022-11-10T07:11:56.122Z,96.14
2022-11-10T07:12:55.423Z,96.18
2022-11-10T07:13:55.642Z,96.44
2022-11-10T07:14:55.893Z,96.54
2022-11-10T07:15:56.117Z,96.44
2022-11-10T07:16:56.418Z,96.34
2022-11-10T07:17:56.678Z,96.44
2022-11-10T07:18:56.903Z,96.23
2022-11-10T07:19:57.257Z,96.34
2022-11-10T07:20:57.490Z,96.39
2022-11-10T07:21:58.754Z,96.44
2022-11-10T07:22:58.039Z,96.09
2022-11-10T07:23:59.010Z,95.89
2022-11-10T07:24:58.532Z,95.98
2022-11-10T07:25:58.879Z,96.09
2022-11-10T07:26:59.121Z,96.09
2022-11-10T07:27:59.347Z,95.58
2022-11-10T07:28:59.603Z,95.48
2022-11-10T07:29:59.831Z,95.48
2022-11-10T07:31:00.070Z,95.68
2022-11-10T07:32:00.754Z,95.28
2022-11-10T07:33:00.524Z,95.07
2022-11-10T07:34:00.839Z,95.17
2022-11-10T07:35:01.956Z,95.68
2022-11-10T07:36:01.370Z,95.68
2022-11-10T07:37:01.601Z,95.07
2022-11-10T07:38:02.124Z,95.37
2022-11-10T07:39:02.565Z,95.68
2022-11-10T07:40:02.486Z,95.28
2022-11-10T07:41:02.714Z,95.07
2022-11-10T07:42:02.956Z,94.87
2022-11-10T07:43:03.976Z,95.68
2022-11-10T07:44:03.506Z,95.28
2022-11-10T07:45:03.874Z,95.68
2022-11-10T07:46:04.104Z,95.13
2022-11-10T07:47:05.045Z,95.03
2022-11-10T07:48:04.573Z,94.92
2022-11-10T07:49:04.805Z,94.21
2022-11-10T07:50:05.058Z,95.48
2022-11-10T07:51:05.287Z,95.17
2022-11-10T07:52:05.629Z,95.43
2022-11-10T07:53:05.885Z,94.82
2022-11-10T07:54:06.115Z,95.33
2022-11-10T07:55:06.352Z,95.33
2022-11-10T07:56:06.588Z,95.23
2022-11-10T07:57:06.818Z,95.23
2022-11-10T07:58:07.075Z,95.23
2022-11-10T07:59:07.304Z,95.23
2022-11-10T08:00:07.538Z,95.48
2022-11-10T08:01:07.817Z,95.23
2022-11-10T08:02:08.134Z,95.53
2022-11-10T08:03:08.332Z,95.64
2022-11-10T08:04:08.556Z,95.53
2022-11-10T08:05:08.799Z,95.23
2022-11-10T08:06:09.051Z,94.92
2022-11-10T08:07:09.335Z,95.33
2022-11-10T08:08:09.680Z,95.29
2022-11-10T08:09:09.937Z,95.43
2022-11-10T08:10:10.257Z,95.33
2022-11-10T08:11:10.490Z,95.13
2022-11-10T08:12:10.717Z,95.33
2022-11-10T08:13:11.022Z,96.15
2022-11-10T08:14:11.250Z,95.84
2022-11-10T08:15:11.475Z,95.69
2022-11-10T08:16:11.814Z,95.64
2022-11-10T08:17:12.172Z,95.49
2022-11-10T08:18:13.444Z,95.18
2022-11-10T08:19:12.873Z,95.29
2022-11-10T08:20:13.099Z,95.08
2022-11-10T08:21:13.447Z,94.98
2022-11-10T08:22:13.677Z,95.24
2022-11-10T08:23:13.969Z,94.63
2022-11-10T08:24:14.189Z,94.38
2022-11-10T08:25:14.540Z,94.48
2022-11-10T08:26:14.758Z,94.08
2022-11-10T08:27:15.110Z,94.02
2022-11-10T08:28:16.344Z,94.38
2022-11-10T08:29:15.650Z,94.28
2022-11-10T08:30:15.901Z,94.02
2022-11-10T08:31:16.132Z,94.59
2022-11-10T08:32:16.370Z,93.93
2022-11-10T08:33:17.681Z,93.32
2022-11-10T08:34:16.981Z,92.91
2022-11-10T08:35:17.221Z,93.32
2022-11-10T08:36:17.454Z,92.71
2022-11-10T08:37:17.687Z,92.91
2022-11-10T08:38:18.885Z,93.26
2022-11-10T08:39:37.712Z,93.47
2022-11-10T08:40:19.423Z,93.87
2022-11-10T08:41:18.711Z,94.08
2022-11-10T08:42:18.947Z,93.57
2022-11-10T08:43:20.453Z,93.77
2022-11-10T08:44:20.967Z,93.98
2022-11-10T08:45:19.797Z,93.98
2022-11-10T08:46:20.065Z,93.57
2022-11-10T08:47:20.442Z,93.67
2022-11-10T08:48:22.007Z,93.67
2022-11-10T08:49:20.847Z,93.57
2022-11-10T08:50:21.089Z,93.47
2022-11-10T08:51:21.323Z,93.87
2022-11-10T08:52:21.553Z,93.83
2022-11-10T08:53:23.091Z,93.22
2022-11-10T08:54:22.196Z,93.12
2022-11-10T08:55:22.443Z,93.12
2022-11-10T08:56:22.662Z,93.12
2022-11-10T08:57:23.026Z,93.02
2022-11-10T08:58:24.198Z,93.32
2022-11-10T08:59:23.499Z,93.26
2022-11-10T09:00:23.817Z,93.47
2022-11-10T09:01:24.025Z,93.37
2022-11-10T09:02:24.277Z,93.26
2022-11-10T09:03:25.903Z,93.47
2022-11-10T09:04:24.889Z,93.98
2022-11-10T09:05:25.122Z,93.32
2022-11-10T09:06:25.347Z,92.96
2022-11-10T09:07:25.578Z,93.57
2022-11-10T09:08:25.868Z,93.32
2022-11-10T09:09:26.110Z,92.71
2022-11-10T09:10:26.439Z,92.65
2022-11-10T09:11:26.671Z,93.37
2022-11-10T09:12:26.898Z,93.26
2022-11-10T09:13:30.121Z,93.02
2022-11-10T09:14:27.444Z,92.82
2022-11-10T09:15:27.701Z,92.51
2022-11-10T09:16:27.929Z,92.91
2022-11-10T09:17:28.160Z,92.82
2022-11-10T09:18:29.381Z,93.16
2022-11-10T09:19:28.737Z,93.06
2022-11-10T09:20:28.935Z,92.96
2022-11-10T09:21:29.177Z,92.82
2022-11-10T09:22:29.419Z,92.61
2022-11-10T09:23:30.499Z,93.12
2022-11-10T09:24:31.482Z,92.61
2022-11-10T09:25:30.213Z,92.82
2022-11-10T09:26:30.456Z,93.02
2022-11-10T09:27:30.699Z,92.61
2022-11-10T09:28:31.933Z,92.61
2022-11-10T09:29:31.240Z,92.91
2022-11-10T09:30:31.470Z,92.30
2022-11-10T09:31:31.713Z,92.86
2022-11-10T09:32:31.933Z,93.02
2022-11-10T09:33:33.125Z,92.91
2022-11-10T09:34:32.428Z,92.91
2022-11-10T09:35:32.678Z,92.57
2022-11-10T09:36:32.894Z,92.61
2022-11-10T09:37:33.129Z,92.21
2022-11-10T09:38:34.385Z,92.10
2022-11-10T09:39:33.672Z,92.71
2022-11-10T09:40:33.901Z,92.71
2022-11-10T09:41:34.143Z,92.96
2022-11-10T09:42:34.361Z,93.02
2022-11-10T09:43:35.491Z,92.51
2022-11-10T09:44:35.025Z,92.82
2022-11-10T09:45:39.193Z,93.32
2022-11-10T09:46:35.578Z,92.51
2022-11-10T09:47:56.158Z,92.61
2022-11-10T09:48:38.016Z,92.91
2022-11-10T09:49:36.318Z,92.71
2022-11-10T09:50:36.540Z,92.96
2022-11-10T09:51:36.803Z,93.02
2022-11-10T09:52:37.030Z,93.16
2022-11-10T09:53:37.445Z,93.32
2022-11-10T09:54:37.673Z,92.61
2022-11-10T09:55:37.904Z,92.71
2022-11-10T09:56:38.154Z,92.55
2022-11-10T09:57:38.385Z,92.71
2022-11-10T09:58:39.427Z,92.61
2022-11-10T09:59:38.846Z,92.61
2022-11-10T10:00:39.097Z,92.21
2022-11-10T10:01:39.881Z,91.86
2022-11-10T10:02:39.634Z,92.06
2022-11-10T10:03:40.857Z,92.10
2022-11-10T10:04:44.741Z,91.55
2022-11-10T10:05:41.389Z,91.65
2022-11-10T10:07:04.971Z,91.75
2022-11-10T10:07:41.983Z,91.30
2022-11-10T10:08:42.230Z,91.20
2022-11-10T10:09:41.525Z,90.90
2022-11-10T10:10:41.766Z,90.49
2022-11-10T10:11:42.032Z,90.90
2022-11-10T10:12:42.279Z,90.45
2022-11-10T10:13:43.537Z,90.00
2022-11-10T10:14:42.826Z,88.89
2022-11-10T10:15:43.080Z,88.34
2022-11-10T10:16:43.338Z,88.18
2022-11-10T10:17:43.592Z,88.48
2022-11-10T10:18:44.790Z,89.37
2022-11-10T10:19:44.110Z,89.68
2022-11-10T10:20:44.363Z,90.29
2022-11-10T10:21:44.580Z,90.39
2022-11-10T10:22:44.825Z,90.64
2022-11-10T10:24:46.299Z,90.90
2022-11-10T10:25:45.602Z,91.10
2022-11-10T10:26:45.851Z,91.05
2022-11-10T10:27:46.113Z,91.14
2022-11-10T10:28:46.432Z,91.00
2022-11-10T10:29:46.671Z,90.66
2022-11-10T10:30:46.909Z,90.25
2022-11-10T10:31:47.156Z,90.55
2022-11-10T10:32:47.410Z,89.94
2022-11-10T10:33:47.703Z,91.14
2022-11-10T10:34:47.928Z,91.25
2022-11-10T10:35:48.168Z,91.45
2022-11-10T10:36:48.403Z,91.30
2022-11-10T10:37:48.777Z,91.45
2022-11-10T10:38:49.976Z,91.55
2022-11-10T10:39:49.273Z,91.55
2022-11-10T10:40:49.513Z,91.55
2022-11-10T10:41:49.764Z,91.35
2022-11-10T10:42:50.016Z,91.55
2022-11-10T10:43:51.243Z,91.16
2022-11-10T10:44:50.679Z,90.75
2022-11-10T10:45:50.919Z,90.66
2022-11-10T10:46:51.122Z,90.49
2022-11-10T10:47:51.354Z,91.30
2022-11-10T10:49:08.345Z,91.71
2022-11-10T10:49:52.843Z,91.10
2022-11-10T10:50:52.142Z,91.00
2022-11-10T10:51:52.397Z,91.10
2022-11-10T10:52:52.626Z,91.00
2022-11-10T10:53:53.864Z,91.10
2022-11-10T10:54:53.181Z,91.30
2022-11-10T10:55:53.424Z,91.06
2022-11-10T10:56:53.664Z,90.70
2022-11-10T10:57:53.897Z,91.20
2022-11-10T10:58:55.097Z,91.26
2022-11-10T10:59:54.405Z,90.96
2022-11-10T11:00:54.645Z,90.35
2022-11-10T11:01:54.960Z,90.66
2022-11-10T11:02:57.253Z,90.39
2022-11-10T11:03:57.394Z,90.45
2022-11-10T11:04:55.722Z,90.29
2022-11-10T11:05:55.969Z,90.70
2022-11-10T11:06:56.249Z,90.75
2022-11-10T11:07:56.808Z,90.35
2022-11-10T11:08:59.442Z,90.80
2022-11-10T11:09:56.948Z,90.70
2022-11-10T11:10:57.206Z,90.90
2022-11-10T11:11:57.451Z,90.75
2022-11-10T11:12:57.693Z,90.55
2022-11-10T11:13:58.033Z,89.80
2022-11-10T11:14:58.168Z,90.25
2022-11-10T11:15:58.416Z,90.25
2022-11-10T11:16:58.815Z,90.35
2022-11-10T11:17:58.927Z,89.94
2022-11-10T11:19:00.169Z,90.35
2022-11-10T11:20:00.255Z,90.51
2022-11-10T11:20:59.761Z,90.20
2022-11-10T11:21:59.988Z,90.14
2022-11-10T11:23:00.211Z,90.45
2022-11-10T11:24:00.447Z,90.45
2022-11-10T11:25:00.685Z,90.66
2022-11-10T11:26:00.940Z,90.55
2022-11-10T11:27:01.187Z,90.55
2022-11-10T11:28:01.421Z,90.75
2022-11-10T11:29:01.652Z,90.35
2022-11-10T11:30:01.882Z,90.45
2022-11-10T11:31:02.140Z,90.20
2022-11-10T11:32:03.348Z,89.90
2022-11-10T11:33:02.643Z,90.11
2022-11-10T11:34:02.876Z,89.90
2022-11-10T11:35:03.107Z,89.59
2022-11-10T11:36:03.352Z,89.90
2022-11-10T11:37:09.851Z,89.90
2022-11-10T11:38:04.849Z,90.00
2022-11-10T11:39:04.132Z,89.59
2022-11-10T11:40:04.383Z,90.14
2022-11-10T11:41:04.613Z,90.00
2022-11-10T11:42:04.858Z,89.90
2022-11-10T11:43:05.134Z,89.59
2022-11-10T11:44:05.375Z,89.04
2022-11-10T11:45:05.623Z,88.64
2022-11-10T11:46:07.324Z,89.04
2022-11-10T11:47:06.130Z,88.95
2022-11-10T11:48:06.384Z,88.78
2022-11-10T11:49:06.630Z,89.39
2022-11-10T11:50:06.865Z,89.09
2022-11-10T11:51:07.106Z,88.84
2022-11-10T11:52:07.359Z,88.78
2022-11-10T11:53:07.614Z,88.78
2022-11-10T11:54:07.851Z,89.39
2022-11-10T11:55:08.102Z,89.29
2022-11-10T11:56:08.352Z,88.99
2022-11-10T11:57:08.592Z,88.89
2022-11-10T11:58:08.880Z,88.75
2022-11-10T11:59:09.136Z,88.54
2022-11-10T12:00:09.376Z,88.54
2022-11-10T12:01:09.626Z,88.23
2022-11-10T12:02:09.945Z,88.40
2022-11-10T12:03:10.183Z,87.38
2022-11-10T12:04:10.446Z,88.21
2022-11-10T12:05:10.687Z,85.48
2022-11-10T12:06:10.927Z,85.84
2022-11-10T12:07:11.260Z,85.07
2022-11-10T12:08:12.946Z,86.33
2022-11-10T12:09:11.746Z,86.83
2022-11-10T12:10:11.992Z,87.24
2022-11-10T12:11:12.370Z,86.29
2022-11-10T12:12:12.589Z,86.22
2022-11-10T12:13:13.811Z,86.73
2022-11-10T12:14:13.109Z,86.94
2022-11-10T12:15:13.348Z,86.43
2022-11-10T12:16:13.607Z,86.22
2022-11-10T12:17:13.851Z,86.33
2022-11-10T12:18:15.070Z,86.63
2022-11-10T12:19:14.368Z,87.14
2022-11-10T12:20:14.611Z,86.94
2022-11-10T12:21:14.873Z,86.98
2022-11-10T12:22:15.138Z,87.93
2022-11-10T12:23:16.362Z,88.38
2022-11-10T12:24:15.649Z,88.44
2022-11-10T12:25:15.910Z,88.64
2022-11-10T12:26:17.038Z,88.44
2022-11-10T12:27:16.469Z,88.68
2022-11-10T12:28:17.716Z,89.19
2022-11-10T12:29:17.028Z,89.39
2022-11-10T12:30:17.248Z,89.39
2022-11-10T12:31:17.502Z,89.70
2022-11-10T12:32:17.773Z,89.80
2022-11-10T12:33:18.981Z,89.19
2022-11-10T12:34:18.259Z,89.25
2022-11-10T12:35:18.493Z,89.29
2022-11-10T12:36:18.731Z,89.50
2022-11-10T12:37:21.196Z,89.70
2022-11-10T12:38:21.582Z,89.15
2022-11-10T12:39:19.471Z,89.50
2022-11-10T12:40:19.719Z,89.39
2022-11-10T12:41:19.961Z,89.50
2022-11-10T12:42:20.198Z,89.90
2022-11-10T12:43:21.773Z,90.35
2022-11-10T12:44:20.705Z,90.35
2022-11-10T12:45:20.930Z,90.20
2022-11-10T12:46:21.181Z,90.66
2022-11-10T12:47:21.425Z,90.51
2022-11-10T12:48:22.101Z,90.51
2022-11-10T12:49:21.917Z,90.31
2022-11-10T12:50:22.139Z,90.00
2022-11-10T12:51:22.512Z,90.31
2022-11-10T12:52:22.747Z,90.20
2022-11-10T12:53:23.906Z,90.11
2022-11-10T12:54:23.194Z,89.90
2022-11-10T12:55:23.436Z,89.90
2022-11-10T12:56:23.687Z,89.70
2022-11-10T12:57:23.925Z,89.76
2022-11-10T12:58:24.671Z,89.15